AVA9613 SKSP-SKCL
Flight info
| Callsign | AVA9613 |
|---|---|
| Flight time | N/A |
| Altitude | 37000 |
| Route | BIXOX2B BIXOX DCT MORLI UN420 BUSMO UW90 ASIKO ASIKO1C |
| Aircraft | A320/M-SDE3FGHIRWY/LB1 |
Departure
| Time | 2026-04-29 16:09 |
|---|---|
| Airport | Gustavo Rojas Pinilla International Airport (SKSP) |
Arrival
| Time | N/A |
|---|---|
| Airport | Alfonso Bonilla Aragon International Airport (SKCL) |
| Time | Latitude | Longitude | Altitude | Speed | Heading |
|---|---|---|---|---|---|
| 2026-04-29 15:53 | 12.58685 | -81.70226 | 30 ft | 0 kts | 148° |
| 2026-04-29 16:00 | 12.58705 | -81.70238 | 30 ft | 4 kts | 155° |
| 2026-04-29 16:00 | 12.58731 | -81.70247 | 30 ft | 4 kts | 171° |
| 2026-04-29 16:00 | 12.58756 | -81.70246 | 29 ft | 4 kts | 211° |
| 2026-04-29 16:00 | 12.58766 | -81.70237 | 28 ft | 1 kts | 238° |
| 2026-04-29 16:01 | 12.58767 | -81.70235 | 28 ft | 1 kts | 238° |
| 2026-04-29 16:02 | 12.58766 | -81.70237 | 28 ft | 3 kts | 238° |
| 2026-04-29 16:03 | 12.58749 | -81.70264 | 30 ft | 3 kts | 238° |
| 2026-04-29 16:03 | 12.58746 | -81.70269 | 30 ft | 0 kts | 238° |
| 2026-04-29 16:03 | 12.58710 | -81.70329 | 33 ft | 24 kts | 239° |
| 2026-04-29 16:03 | 12.58720 | -81.70401 | 34 ft | 9 kts | 291° |
| 2026-04-29 16:04 | 12.58736 | -81.70462 | 35 ft | 12 kts | 265° |
| 2026-04-29 16:04 | 12.58676 | -81.70575 | 39 ft | 18 kts | 239° |
| 2026-04-29 16:04 | 12.58620 | -81.70672 | 43 ft | 13 kts | 239° |
| 2026-04-29 16:04 | 12.58578 | -81.70745 | 46 ft | 12 kts | 239° |
| 2026-04-29 16:05 | 12.58528 | -81.70830 | 47 ft | 23 kts | 239° |
| 2026-04-29 16:05 | 12.58446 | -81.70971 | 54 ft | 21 kts | 239° |
| 2026-04-29 16:05 | 12.58378 | -81.71089 | 55 ft | 18 kts | 239° |
| 2026-04-29 16:05 | 12.58308 | -81.71212 | 57 ft | 27 kts | 239° |
| 2026-04-29 16:06 | 12.58216 | -81.71371 | 60 ft | 24 kts | 239° |
| 2026-04-29 16:06 | 12.58137 | -81.71509 | 57 ft | 21 kts | 239° |
| 2026-04-29 16:06 | 12.58065 | -81.71633 | 64 ft | 25 kts | 239° |
| 2026-04-29 16:06 | 12.57964 | -81.71807 | 70 ft | 28 kts | 239° |
| 2026-04-29 16:07 | 12.57876 | -81.71959 | 82 ft | 19 kts | 238° |
| 2026-04-29 16:07 | 12.57821 | -81.72007 | 84 ft | 13 kts | 236° |
| 2026-04-29 16:07 | 12.57829 | -81.72039 | 85 ft | 0 kts | 17° |
| 2026-04-29 16:07 | 12.57830 | -81.72036 | 85 ft | 1 kts | 44° |
| 2026-04-29 16:08 | 12.57845 | -81.72015 | 84 ft | 9 kts | 59° |
| 2026-04-29 16:08 | 12.58002 | -81.71744 | 74 ft | 81 kts | 59° |
| 2026-04-29 16:08 | 12.58396 | -81.71060 | 53 ft | 139 kts | 59° |
| 2026-04-29 16:08 | 12.58912 | -81.70162 | 566 ft | 146 kts | 61° |
| 2026-04-29 16:09 | 12.59426 | -81.69269 | 1267 ft | 144 kts | 60° |
| 2026-04-29 16:09 | 12.59930 | -81.68375 | 1821 ft | 149 kts | 61° |
| 2026-04-29 16:09 | 12.60368 | -81.67324 | 2120 ft | 172 kts | 72° |
| 2026-04-29 16:09 | 12.60573 | -81.66037 | 2369 ft | 196 kts | 86° |
| 2026-04-29 16:10 | 12.60400 | -81.64550 | 2691 ft | 225 kts | 103° |
| 2026-04-29 16:10 | 12.59718 | -81.63012 | 3128 ft | 251 kts | 121° |
| 2026-04-29 16:10 | 12.58500 | -81.61698 | 3834 ft | 265 kts | 140° |
| 2026-04-29 16:10 | 12.56814 | -81.60816 | 4693 ft | 275 kts | 160° |
| 2026-04-29 16:11 | 12.54913 | -81.60565 | 5512 ft | 283 kts | 176° |
| 2026-04-29 16:11 | 12.52934 | -81.60548 | 6398 ft | 286 kts | 177° |
| 2026-04-29 16:11 | 12.50931 | -81.60529 | 7211 ft | 288 kts | 176° |
| 2026-04-29 16:11 | 12.48913 | -81.60506 | 8053 ft | 290 kts | 177° |
| 2026-04-29 16:12 | 12.46882 | -81.60480 | 8893 ft | 292 kts | 176° |
| 2026-04-29 16:12 | 12.45531 | -81.60461 | 9450 ft | 294 kts | 177° |
| 2026-04-29 16:12 | 12.42768 | -81.60388 | 10314 ft | 305 kts | 172° |
| 2026-04-29 16:12 | 12.40626 | -81.60042 | 10515 ft | 326 kts | 161° |
| 2026-04-29 16:13 | 12.38488 | -81.59082 | 10723 ft | 345 kts | 150° |
| 2026-04-29 16:13 | 12.36393 | -81.57821 | 11213 ft | 353 kts | 147° |
| 2026-04-29 16:13 | 12.34311 | -81.56550 | 12253 ft | 340 kts | 150° |
| 2026-04-29 16:13 | 12.32292 | -81.55435 | 13640 ft | 320 kts | 151° |
| 2026-04-29 16:14 | 12.31005 | -81.54745 | 14408 ft | 311 kts | 152° |
| 2026-04-29 16:14 | 12.29098 | -81.53722 | 15155 ft | 311 kts | 152° |
| 2026-04-29 16:14 | 12.27171 | -81.52669 | 15684 ft | 317 kts | 152° |
| 2026-04-29 16:14 | 12.25167 | -81.51547 | 15819 ft | 337 kts | 152° |
| 2026-04-29 16:15 | 12.23064 | -81.50349 | 15939 ft | 355 kts | 151° |
| 2026-04-29 16:15 | 12.20121 | -81.48664 | 16113 ft | 377 kts | 151° |
| 2026-04-29 16:15 | 12.18560 | -81.47769 | 16313 ft | 383 kts | 151° |
| 2026-04-29 16:15 | 12.16211 | -81.46423 | 16703 ft | 390 kts | 151° |
| 2026-04-29 16:16 | 12.13829 | -81.45057 | 17125 ft | 395 kts | 151° |
| 2026-04-29 16:16 | 12.11450 | -81.43694 | 17582 ft | 399 kts | 152° |
| 2026-04-29 16:16 | 12.09013 | -81.42301 | 18057 ft | 402 kts | 152° |
| 2026-04-29 16:16 | 12.06558 | -81.40898 | 18447 ft | 406 kts | 152° |
| 2026-04-29 16:17 | 12.04085 | -81.39486 | 18837 ft | 409 kts | 153° |
| 2026-04-29 16:17 | 12.01587 | -81.38063 | 19257 ft | 411 kts | 153° |
| 2026-04-29 16:17 | 11.99079 | -81.36634 | 19660 ft | 414 kts | 153° |
| 2026-04-29 16:17 | 11.96551 | -81.35193 | 20072 ft | 416 kts | 153° |
| 2026-04-29 16:18 | 11.94051 | -81.33765 | 20466 ft | 419 kts | 153° |
| 2026-04-29 16:18 | 11.91502 | -81.32309 | 20853 ft | 421 kts | 153° |
| 2026-04-29 16:18 | 11.88934 | -81.30843 | 21251 ft | 423 kts | 153° |
| 2026-04-29 16:18 | 11.86354 | -81.29373 | 21655 ft | 425 kts | 153° |
| 2026-04-29 16:19 | 11.83759 | -81.27896 | 22049 ft | 427 kts | 154° |
| 2026-04-29 16:19 | 11.81150 | -81.26408 | 22438 ft | 430 kts | 154° |
| 2026-04-29 16:19 | 11.78525 | -81.24908 | 22816 ft | 432 kts | 154° |
| 2026-04-29 16:19 | 11.75898 | -81.23407 | 23196 ft | 434 kts | 154° |
| 2026-04-29 16:20 | 11.73249 | -81.21896 | 23565 ft | 437 kts | 154° |
| 2026-04-29 16:20 | 11.70615 | -81.20392 | 23851 ft | 439 kts | 154° |
| 2026-04-29 16:20 | 11.67934 | -81.18864 | 24161 ft | 440 kts | 154° |
| 2026-04-29 16:20 | 11.65243 | -81.17334 | 24475 ft | 442 kts | 154° |
| 2026-04-29 16:21 | 11.62551 | -81.15803 | 24763 ft | 444 kts | 154° |
| 2026-04-29 16:21 | 11.59852 | -81.14267 | 25059 ft | 445 kts | 155° |
| 2026-04-29 16:21 | 11.57176 | -81.12745 | 25351 ft | 447 kts | 155° |
| 2026-04-29 16:21 | 11.54449 | -81.11196 | 25650 ft | 448 kts | 155° |
| 2026-04-29 16:22 | 11.51718 | -81.09628 | 25946 ft | 450 kts | 154° |
| 2026-04-29 16:22 | 11.48984 | -81.08044 | 26248 ft | 452 kts | 154° |
| 2026-04-29 16:22 | 11.46244 | -81.06452 | 26539 ft | 453 kts | 154° |
| 2026-04-29 16:22 | 11.43501 | -81.04859 | 26820 ft | 455 kts | 154° |
| 2026-04-29 16:23 | 11.40740 | -81.03264 | 27093 ft | 456 kts | 155° |
| 2026-04-29 16:23 | 11.38005 | -81.01689 | 27359 ft | 458 kts | 155° |
| 2026-04-29 16:23 | 11.35229 | -81.00089 | 27624 ft | 459 kts | 155° |
| 2026-04-29 16:23 | 11.32434 | -80.98474 | 27875 ft | 461 kts | 155° |
| 2026-04-29 16:24 | 11.29644 | -80.96858 | 28127 ft | 462 kts | 155° |
| 2026-04-29 16:24 | 11.26836 | -80.95232 | 28381 ft | 464 kts | 155° |
| 2026-04-29 16:24 | 11.24016 | -80.93604 | 28629 ft | 465 kts | 155° |
| 2026-04-29 16:24 | 11.21189 | -80.91977 | 28876 ft | 467 kts | 155° |
| 2026-04-29 16:25 | 11.18362 | -80.90352 | 29115 ft | 468 kts | 155° |
| 2026-04-29 16:25 | 11.15520 | -80.88717 | 29431 ft | 468 kts | 155° |
| 2026-04-29 16:25 | 11.12692 | -80.87089 | 29800 ft | 466 kts | 155° |
| 2026-04-29 16:25 | 11.09908 | -80.85485 | 30141 ft | 465 kts | 155° |
| 2026-04-29 16:26 | 11.07094 | -80.83861 | 30456 ft | 464 kts | 155° |
| 2026-04-29 16:26 | 11.04285 | -80.82244 | 30780 ft | 462 kts | 155° |
| 2026-04-29 16:26 | 11.01491 | -80.80634 | 31116 ft | 460 kts | 155° |
| 2026-04-29 16:26 | 10.98704 | -80.79027 | 31444 ft | 459 kts | 155° |
| 2026-04-29 16:27 | 10.95924 | -80.77428 | 31784 ft | 457 kts | 155° |
| 2026-04-29 16:27 | 10.93162 | -80.75840 | 32137 ft | 455 kts | 155° |
| 2026-04-29 16:27 | 10.90448 | -80.74281 | 32482 ft | 453 kts | 155° |
| 2026-04-29 16:27 | 10.87700 | -80.72700 | 32836 ft | 451 kts | 155° |
| 2026-04-29 16:28 | 10.84964 | -80.71126 | 33194 ft | 449 kts | 155° |
| 2026-04-29 16:28 | 10.82240 | -80.69558 | 33567 ft | 448 kts | 156° |
| 2026-04-29 16:28 | 10.79534 | -80.68000 | 33914 ft | 446 kts | 156° |
| 2026-04-29 16:28 | 10.76871 | -80.66468 | 34228 ft | 444 kts | 156° |
| 2026-04-29 16:29 | 10.74170 | -80.64920 | 34517 ft | 444 kts | 156° |
| 2026-04-29 16:29 | 10.71480 | -80.63379 | 34792 ft | 443 kts | 156° |
| 2026-04-29 16:29 | 10.68786 | -80.61835 | 35053 ft | 443 kts | 156° |
| 2026-04-29 16:29 | 10.66092 | -80.60298 | 35302 ft | 442 kts | 156° |
| 2026-04-29 16:30 | 10.63401 | -80.58786 | 35553 ft | 441 kts | 156° |
| 2026-04-29 16:30 | 10.60743 | -80.57309 | 35797 ft | 441 kts | 157° |
| 2026-04-29 16:30 | 10.58044 | -80.55814 | 36033 ft | 441 kts | 157° |
| 2026-04-29 16:30 | 10.55349 | -80.54318 | 36263 ft | 440 kts | 156° |
| 2026-04-29 16:31 | 10.52663 | -80.52821 | 36508 ft | 440 kts | 156° |
| 2026-04-29 16:31 | 10.49987 | -80.51323 | 36754 ft | 439 kts | 156° |
| 2026-04-29 16:31 | 10.47312 | -80.49826 | 36912 ft | 439 kts | 156° |
| 2026-04-29 16:32 | 10.41931 | -80.46827 | 36931 ft | 440 kts | 156° |
| 2026-04-29 16:32 | 10.36596 | -80.43846 | 36936 ft | 440 kts | 156° |
| 2026-04-29 16:33 | 10.28547 | -80.39350 | 36940 ft | 440 kts | 156° |
| 2026-04-29 16:33 | 10.23176 | -80.36345 | 36939 ft | 440 kts | 156° |
| 2026-04-29 16:34 | 10.17833 | -80.33367 | 36938 ft | 440 kts | 157° |
| 2026-04-29 16:34 | 10.12456 | -80.30370 | 36940 ft | 440 kts | 156° |
| 2026-04-29 16:35 | 10.07076 | -80.27371 | 36941 ft | 440 kts | 157° |
| 2026-04-29 16:35 | 10.01695 | -80.24380 | 36948 ft | 440 kts | 156° |
| 2026-04-29 16:36 | 9.96362 | -80.21410 | 36952 ft | 439 kts | 156° |
| 2026-04-29 16:36 | 9.91000 | -80.18426 | 36953 ft | 439 kts | 157° |
| 2026-04-29 16:37 | 9.85634 | -80.15447 | 36949 ft | 439 kts | 157° |
| 2026-04-29 16:37 | 9.81186 | -80.12972 | 36948 ft | 438 kts | 157° |
| 2026-04-29 16:38 | 9.74972 | -80.09515 | 36945 ft | 438 kts | 157° |
| 2026-04-29 16:38 | 9.69627 | -80.06548 | 36943 ft | 437 kts | 157° |
| 2026-04-29 16:39 | 9.64291 | -80.03584 | 36935 ft | 437 kts | 156° |
| 2026-04-29 16:39 | 9.58952 | -80.00613 | 36930 ft | 437 kts | 156° |
| 2026-04-29 16:40 | 9.53652 | -79.97667 | 36930 ft | 437 kts | 156° |
| 2026-04-29 16:40 | 9.48318 | -79.94711 | 36932 ft | 437 kts | 156° |
| 2026-04-29 16:41 | 9.42970 | -79.91744 | 36927 ft | 437 kts | 156° |
| 2026-04-29 16:41 | 9.37631 | -79.88782 | 36922 ft | 436 kts | 156° |
| 2026-04-29 16:42 | 9.32335 | -79.85847 | 36915 ft | 436 kts | 157° |
| 2026-04-29 16:42 | 9.26996 | -79.82891 | 36908 ft | 436 kts | 156° |
| 2026-04-29 16:43 | 9.21695 | -79.79958 | 36901 ft | 436 kts | 156° |
| 2026-04-29 16:43 | 9.16361 | -79.77004 | 36905 ft | 436 kts | 156° |
| 2026-04-29 16:44 | 9.11027 | -79.74046 | 36908 ft | 436 kts | 156° |
| 2026-04-29 16:44 | 9.05683 | -79.71089 | 36887 ft | 436 kts | 156° |
| 2026-04-29 16:45 | 9.00371 | -79.68153 | 36873 ft | 436 kts | 156° |
| 2026-04-29 16:45 | 8.95046 | -79.65212 | 36867 ft | 436 kts | 157° |
| 2026-04-29 16:46 | 8.89754 | -79.62285 | 36867 ft | 436 kts | 156° |
| 2026-04-29 16:46 | 8.84419 | -79.59334 | 36865 ft | 435 kts | 156° |
| 2026-04-29 16:47 | 8.79118 | -79.56403 | 36867 ft | 436 kts | 156° |
| 2026-04-29 16:47 | 8.73830 | -79.53384 | 36870 ft | 437 kts | 155° |
| 2026-04-29 16:48 | 8.68589 | -79.50261 | 36873 ft | 437 kts | 154° |
| 2026-04-29 16:48 | 8.63346 | -79.47128 | 36882 ft | 437 kts | 155° |
| 2026-04-29 16:49 | 8.58088 | -79.44017 | 36888 ft | 438 kts | 155° |
| 2026-04-29 16:49 | 8.52852 | -79.40943 | 36885 ft | 438 kts | 155° |
| 2026-04-29 16:50 | 8.47581 | -79.37853 | 36891 ft | 438 kts | 155° |
| 2026-04-29 16:50 | 8.42315 | -79.34756 | 36890 ft | 438 kts | 155° |
| 2026-04-29 16:51 | 8.37047 | -79.31661 | 36886 ft | 438 kts | 155° |
| 2026-04-29 16:51 | 8.31779 | -79.28567 | 36895 ft | 438 kts | 155° |
| 2026-04-29 16:52 | 8.26536 | -79.25484 | 36892 ft | 438 kts | 155° |
| 2026-04-29 16:52 | 8.21262 | -79.22390 | 36891 ft | 438 kts | 155° |
| 2026-04-29 16:53 | 8.16024 | -79.19320 | 36888 ft | 438 kts | 154° |
| 2026-04-29 16:53 | 8.10741 | -79.16228 | 36890 ft | 438 kts | 154° |
| 2026-04-29 16:54 | 8.05463 | -79.13130 | 36896 ft | 438 kts | 154° |
| 2026-04-29 16:54 | 8.00189 | -79.10030 | 36901 ft | 438 kts | 154° |
| 2026-04-29 16:55 | 7.96689 | -79.07981 | 36901 ft | 438 kts | 155° |